Terminal Aerodrome Forecast
Issued by NWS Mt. Holly, NJ

Home | Current Version | Previous Version | Text Only | Print | Product List | Glossary On
Versions: 1 2 3 4 5 6 7 8 9 10 11 12 13 14 15 16 17 18
000
FTUS41 KPHI 190203 AAA
TAFRDG
TAF AMD
KRDG 190203Z 1902/1924 01010G15KT P6SM SKC
     FM190400 01006KT P6SM SKC
     FM191400 07006KT P6SM SKC
     FM191800 12009KT P6SM OVC250=

USA.gov is the U.S. government's official web portal to all federal, state and local government web resources and services.